Time;durP1;ratioP1;P1;durP2;ratioP2;P2;SDS_P1;SDS_P2;PMS_P1;PMS_P2;Temp;Humidity;BMP_temperature;BMP_pressure;BME280_temperature;BME280_humidity;BME280_pressure;Samples;Min_cycle;Max_cycle;Signal;HPM_P1;HPM_P2
2021/05/17 00:00:35;;;;;;;19.95;16.27;;;;;;;;;;4998432;28;37979;-80
2021/05/17 00:03:01;;;;;;;19.73;15.90;;;;;;;;;;5010218;28;40251;-79
2021/05/17 00:05:29;;;;;;;16.40;14.60;;;;;;;;;;4991318;28;46953;-79
2021/05/17 00:07:56;;;;;;;19.92;15.07;;;;;;;;;;4986368;28;38693;-79
2021/05/17 00:10:22;;;;;;;17.20;13.65;;;;;;;;;;4993807;28;41083;-79
2021/05/17 00:12:49;;;;;;;16.38;14.15;;;;;;;;;;4993767;28;36503;-79
2021/05/17 00:15:16;;;;;;;16.10;14.00;;;;;;;;;;4987816;28;39728;-79
2021/05/17 00:17:43;;;;;;;17.92;13.48;;;;;;;;;;4988573;28;38180;-78
2021/05/17 00:20:10;;;;;;;14.90;10.98;;;;;;;;;;4987787;28;40789;-79
2021/05/17 00:22:37;;;;;;;14.38;11.73;;;;;;;;;;4986649;28;39529;-79
2021/05/17 00:25:04;;;;;;;14.77;11.60;;;;;;;;;;4997816;28;37289;-78
2021/05/17 00:27:30;;;;;;;16.35;11.77;;;;;;;;;;4987050;28;46579;-78
2021/05/17 00:29:57;;;;;;;11.77;9.77;;;;;;;;;;4998983;28;38756;-78
2021/05/17 00:32:23;;;;;;;13.73;11.52;;;;;;;;;;5005428;28;40015;-79
2021/05/17 00:34:50;;;;;;;14.85;10.70;;;;;;;;;;4982125;28;39565;-79
2021/05/17 00:37:16;;;;;;;18.25;11.07;;;;;;;;;;4983078;28;37324;-79
2021/05/17 00:39:43;;;;;;;15.38;10.73;;;;;;;;;;4998921;28;39025;-79
2021/05/17 00:42:10;;;;;;;16.00;11.13;;;;;;;;;;4999868;28;39685;-77
2021/05/17 00:44:41;;;;;;;12.98;9.90;;;;;;;;;;5001108;28;38528;-78
2021/05/17 00:47:14;;;;;;;18.00;12.27;;;;;;;;;;4982773;28;37562;-78
2021/05/17 00:49:42;;;;;;;12.60;9.90;;;;;;;;;;4988004;28;38651;-79
2021/05/17 00:52:09;;;;;;;14.32;9.75;;;;;;;;;;5001201;28;37606;-78
2021/05/17 00:54:36;;;;;;;12.45;9.38;;;;;;;;;;4983635;28;38937;-78
2021/05/17 00:57:04;;;;;;;10.95;8.43;;;;;;;;;;4981749;28;37595;-78
2021/05/17 00:59:31;;;;;;;14.40;9.50;;;;;;;;;;4983521;28;38651;-79
2021/05/17 01:01:57;;;;;;;11.15;8.38;;;;;;;;;;4990296;28;39356;-77
2021/05/17 01:04:24;;;;;;;11.10;9.40;;;;;;;;;;4998510;28;38482;-78
2021/05/17 01:06:53;;;;;;;13.97;8.30;;;;;;;;;;4986505;28;35486;-78
2021/05/17 01:09:21;;;;;;;11.23;8.73;;;;;;;;;;4984881;28;40809;-78
2021/05/17 01:11:47;;;;;;;12.98;10.15;;;;;;;;;;4996835;28;39835;-78
2021/05/17 01:14:14;;;;;;;12.48;9.35;;;;;;;;;;5002366;28;39326;-77
2021/05/17 01:16:41;;;;;;;16.10;9.50;;;;;;;;;;5000610;28;38253;-78
2021/05/17 01:19:10;;;;;;;18.70;10.30;;;;;;;;;;5003660;28;39231;-77
2021/05/17 01:21:38;;;;;;;13.23;10.15;;;;;;;;;;4982714;28;38519;-77
2021/05/17 01:24:05;;;;;;;21.02;10.23;;;;;;;;;;4983285;28;39410;-79
2021/05/17 01:26:33;;;;;;;14.23;10.00;;;;;;;;;;5004618;28;35141;-77
2021/05/17 01:29:02;;;;;;;13.93;10.73;;;;;;;;;;5004349;28;39263;-76
2021/05/17 01:31:28;;;;;;;16.70;9.80;;;;;;;;;;5002881;28;48846;-77
2021/05/17 01:33:55;;;;;;;16.98;10.55;;;;;;;;;;4986078;28;37587;-78
2021/05/17 01:36:22;;;;;;;17.80;12.27;;;;;;;;;;5007969;28;36986;-79
2021/05/17 01:38:49;;;;;;;18.10;11.77;;;;;;;;;;4985400;28;39945;-78
2021/05/17 01:41:17;;;;;;;15.18;10.20;;;;;;;;;;4978269;28;37838;-79
2021/05/17 01:43:45;;;;;;;14.95;10.07;;;;;;;;;;4985085;28;39130;-79
2021/05/17 01:46:31;;;;;;;13.00;9.50;;;;;;;;;;4999157;28;37089;-79
2021/05/17 01:48:59;;;;;;;11.07;9.07;;;;;;;;;;5000038;28;40608;-79
2021/05/17 01:51:26;;;;;;;14.20;9.33;;;;;;;;;;4988521;28;38186;-78
2021/05/17 01:53:53;;;;;;;12.07;8.90;;;;;;;;;;4985205;28;39442;-77
2021/05/17 01:56:20;;;;;;;13.30;8.02;;;;;;;;;;4997067;28;36654;-77
2021/05/17 01:58:47;;;;;;;10.93;8.38;;;;;;;;;;4990527;28;39812;-77
2021/05/17 02:01:14;;;;;;;12.00;7.57;;;;;;;;;;5001701;28;39631;-78
2021/05/17 02:03:42;;;;;;;12.18;8.20;;;;;;;;;;4989471;28;39485;-77
2021/05/17 02:06:10;;;;;;;11.50;7.95;;;;;;;;;;5002714;28;37322;-78
2021/05/17 02:08:41;;;;;;;11.93;7.60;;;;;;;;;;4996660;28;38937;-78
2021/05/17 02:11:09;;;;;;;9.55;7.80;;;;;;;;;;4995395;28;38694;-78
2021/05/17 02:13:37;;;;;;;11.38;6.88;;;;;;;;;;5008154;28;38164;-78
2021/05/17 02:16:04;;;;;;;10.07;7.18;;;;;;;;;;5000514;28;37600;-77
2021/05/17 02:18:30;;;;;;;7.82;6.40;;;;;;;;;;4989489;28;37911;-78
2021/05/17 02:20:57;;;;;;;10.75;6.60;;;;;;;;;;5005602;28;38575;-77
2021/05/17 02:23:23;;;;;;;10.88;6.20;;;;;;;;;;5001205;28;39606;-77
2021/05/17 02:25:51;;;;;;;9.02;6.70;;;;;;;;;;4999186;28;37553;-77
2021/05/17 02:28:18;;;;;;;9.75;6.07;;;;;;;;;;4982129;28;37535;-77
2021/05/17 02:30:45;;;;;;;8.90;5.53;;;;;;;;;;4977104;28;40893;-78
2021/05/17 02:33:13;;;;;;;9.57;6.03;;;;;;;;;;4983970;28;39110;-77
2021/05/17 02:35:39;;;;;;;7.68;6.28;;;;;;;;;;4982144;28;37694;-77
2021/05/17 02:38:07;;;;;;;7.80;6.28;;;;;;;;;;4982038;28;40536;-77
2021/05/17 02:40:33;;;;;;;8.30;5.75;;;;;;;;;;4981336;28;38888;-77
2021/05/17 02:43:01;;;;;;;10.50;5.68;;;;;;;;;;4985576;28;39405;-77
2021/05/17 02:45:28;;;;;;;10.65;5.20;;;;;;;;;;4977074;28;48388;-77
2021/05/17 02:47:56;;;;;;;9.25;5.32;;;;;;;;;;4977471;28;39824;-77
2021/05/17 02:50:29;;;;;;;10.68;5.03;;;;;;;;;;4998091;28;39222;-76
2021/05/17 02:52:56;;;;;;;9.30;4.53;;;;;;;;;;5001886;28;20047;-76
2021/05/17 02:55:28;;;;;;;9.98;5.05;;;;;;;;;;5000305;28;37486;-77
2021/05/17 02:58:01;;;;;;;9.05;4.65;;;;;;;;;;4999329;28;38734;-77
2021/05/17 03:00:27;;;;;;;;;;;;;;;;;;4983234;28;47238;-78
2021/05/17 03:02:55;;;;;;;9.25;5.18;;;;;;;;;;4989078;28;38750;-78
2021/05/17 03:05:21;;;;;;;9.73;5.40;;;;;;;;;;4985804;28;35609;-77
2021/05/17 03:07:52;;;;;;;10.13;5.47;;;;;;;;;;4983681;28;39949;-78
2021/05/17 03:10:18;;;;;;;10.25;5.10;;;;;;;;;;4996834;28;39757;-78
2021/05/17 03:12:45;;;;;;;7.35;4.47;;;;;;;;;;4985397;28;39701;-78
2021/05/17 03:15:13;;;;;;;9.85;5.15;;;;;;;;;;4979433;28;37507;-78
2021/05/17 03:17:40;;;;;;;11.27;6.00;;;;;;;;;;4980394;28;40023;-78
2021/05/17 03:20:07;;;;;;;10.32;5.80;;;;;;;;;;4981025;28;38358;-78
2021/05/17 03:22:33;;;;;;;6.53;5.63;;;;;;;;;;4981613;28;39229;-77
2021/05/17 03:25:02;;;;;;;13.90;7.03;;;;;;;;;;4977760;28;36987;-78
2021/05/17 03:27:29;;;;;;;11.73;7.05;;;;;;;;;;4980029;28;47011;-77
2021/05/17 03:29:56;;;;;;;10.93;7.00;;;;;;;;;;4996984;28;38435;-77
2021/05/17 03:32:24;;;;;;;11.60;7.35;;;;;;;;;;4999288;28;40888;-77
2021/05/17 03:34:51;;;;;;;12.85;7.35;;;;;;;;;;4999911;28;37122;-78
2021/05/17 03:37:17;;;;;;;9.25;7.18;;;;;;;;;;4980755;28;40092;-78
2021/05/17 03:39:45;;;;;;;9.32;6.38;;;;;;;;;;4975931;28;41125;-77
2021/05/17 03:42:11;;;;;;;8.25;6.75;;;;;;;;;;4997651;28;37686;-76
2021/05/17 03:44:38;;;;;;;10.63;6.93;;;;;;;;;;4980400;28;36836;-77
2021/05/17 03:47:04;;;;;;;10.00;6.47;;;;;;;;;;4998416;28;38491;-77
2021/05/17 03:49:31;;;;;;;9.23;6.53;;;;;;;;;;4997568;28;38863;-77
2021/05/17 03:51:57;;;;;;;13.63;6.75;;;;;;;;;;5003765;28;39574;-77
2021/05/17 03:54:23;;;;;;;8.52;6.35;;;;;;;;;;4979323;28;35885;-77
2021/05/17 03:56:50;;;;;;;11.23;7.00;;;;;;;;;;4979668;28;38477;-77
2021/05/17 03:59:17;;;;;;;8.90;7.03;;;;;;;;;;5005190;28;40350;-77
2021/05/17 04:01:45;;;;;;;9.93;6.20;;;;;;;;;;4982911;28;37548;-76
2021/05/17 04:04:13;;;;;;;9.23;5.82;;;;;;;;;;4981301;28;37849;-77
2021/05/17 04:06:50;;;;;;;11.38;6.50;;;;;;;;;;4985206;28;37972;-77
2021/05/17 04:14:46;;;;;;;11.70;7.18;;;;;;;;;;5003163;28;38020;-77
2021/05/17 04:17:13;;;;;;;18.35;8.65;;;;;;;;;;4988665;28;40221;-77
2021/05/17 04:19:39;;;;;;;18.63;8.40;;;;;;;;;;5010177;28;39291;-77
2021/05/17 04:22:06;;;;;;;20.90;9.02;;;;;;;;;;5008997;28;39919;-77
2021/05/17 04:24:32;;;;;;;16.77;9.88;;;;;;;;;;4986407;28;36084;-76
2021/05/17 04:27:00;;;;;;;19.10;9.25;;;;;;;;;;5005242;28;40347;-76
2021/05/17 04:29:27;;;;;;;12.67;8.63;;;;;;;;;;4983347;28;37565;-77
2021/05/17 04:31:53;;;;;;;13.45;9.05;;;;;;;;;;4989720;28;39411;-77
2021/05/17 04:34:20;;;;;;;14.80;9.20;;;;;;;;;;5013661;28;36816;-78
2021/05/17 04:36:46;;;;;;;16.48;9.90;;;;;;;;;;4990424;28;40067;-78
2021/05/17 04:39:13;;;;;;;13.82;8.57;;;;;;;;;;5005533;28;36721;-78
2021/05/17 04:41:39;;;;;;;16.40;10.13;;;;;;;;;;5000080;28;38525;-78
2021/05/17 04:44:05;;;;;;;9.77;7.78;;;;;;;;;;5001848;28;37030;-78
2021/05/17 04:46:34;;;;;;;16.73;9.20;;;;;;;;;;4983400;28;37680;-78
2021/05/17 04:49:00;;;;;;;13.43;8.90;;;;;;;;;;5003883;28;38632;-78
2021/05/17 04:51:28;;;;;;;14.98;8.10;;;;;;;;;;5000817;28;39038;-78
2021/05/17 04:53:55;;;;;;;17.00;8.77;;;;;;;;;;4980994;28;35521;-79
2021/05/17 04:56:21;;;;;;;21.17;8.80;;;;;;;;;;4999561;28;38060;-78
2021/05/17 04:58:48;;;;;;;14.60;8.43;;;;;;;;;;4986627;28;37412;-77
2021/05/17 05:01:14;;;;;;;15.07;8.65;;;;;;;;;;5001071;28;39355;-77
2021/05/17 05:03:41;;;;;;;15.18;8.77;;;;;;;;;;4986785;28;36130;-77
2021/05/17 05:06:07;;;;;;;13.82;8.20;;;;;;;;;;4992534;28;40041;-77
2021/05/17 05:08:34;;;;;;;18.42;8.73;;;;;;;;;;5006445;28;38529;-78
2021/05/17 05:11:00;;;;;;;21.20;8.98;;;;;;;;;;5003494;28;38904;-78
2021/05/17 05:13:27;;;;;;;19.52;9.23;;;;;;;;;;4981004;28;37289;-78
2021/05/17 05:15:53;;;;;;;17.67;9.65;;;;;;;;;;5004352;28;37430;-77
2021/05/17 05:18:20;;;;;;;17.08;9.50;;;;;;;;;;5008667;28;38693;-77
2021/05/17 05:20:47;;;;;;;21.75;10.07;;;;;;;;;;4990572;28;38616;-77
2021/05/17 05:23:14;;;;;;;19.77;9.82;;;;;;;;;;4988848;28;38547;-78
2021/05/17 05:26:36;;;;;;;15.38;9.93;;;;;;;;;;5003666;28;40230;-77
2021/05/17 05:28:52;;;;;;;19.70;10.50;;;;;;;;;;4991318;28;49542;-78
2021/05/17 05:31:23;;;;;;;18.80;9.32;;;;;;;;;;5011524;28;38138;-77
2021/05/17 05:33:49;;;;;;;12.93;9.20;;;;;;;;;;4995794;28;37276;-77
2021/05/17 05:36:16;;;;;;;14.10;8.80;;;;;;;;;;5008987;28;38807;-77
2021/05/17 05:38:42;;;;;;;19.23;8.95;;;;;;;;;;4999043;28;38970;-77
2021/05/17 05:41:09;;;;;;;17.38;9.32;;;;;;;;;;5012320;28;37952;-77
2021/05/17 05:43:35;;;;;;;13.65;9.40;;;;;;;;;;4989971;28;35857;-76
2021/05/17 05:46:01;;;;;;;14.27;9.13;;;;;;;;;;5003081;28;38497;-76
2021/05/17 05:48:29;;;;;;;19.70;9.52;;;;;;;;;;4990725;28;40398;-76
2021/05/17 05:50:55;;;;;;;17.10;9.48;;;;;;;;;;5013857;28;38426;-77
2021/05/17 05:53:22;;;;;;;19.10;9.32;;;;;;;;;;4999883;28;35249;-77
2021/05/17 05:55:48;;;;;;;20.45;9.75;;;;;;;;;;5016837;28;41680;-77
2021/05/17 05:58:15;;;;;;;14.65;8.65;;;;;;;;;;4997027;28;39861;-77
2021/05/17 06:00:42;;;;;;;16.88;7.88;;;;;;;;;;5016623;28;39874;-77
2021/05/17 06:03:09;;;;;;;20.63;7.97;;;;;;;;;;5016511;28;37428;-76
2021/05/17 06:05:36;;;;;;;13.65;7.07;;;;;;;;;;4999620;28;41060;-78
2021/05/17 06:08:04;;;;;;;19.08;6.50;;;;;;;;;;5008559;28;39474;-77
2021/05/17 06:10:30;;;;;;;15.00;6.50;;;;;;;;;;4996143;28;40003;-78
2021/05/17 06:12:58;;;;;;;11.85;5.68;;;;;;;;;;4996496;28;35925;-78
2021/05/17 06:15:24;;;;;;;12.35;6.18;;;;;;;;;;5010684;28;39851;-78
2021/05/17 06:17:51;;;;;;;11.32;5.78;;;;;;;;;;4996722;28;40410;-78
2021/05/17 06:20:17;;;;;;;9.27;5.95;;;;;;;;;;4990514;28;39214;-78
2021/05/17 06:22:44;;;;;;;9.77;5.03;;;;;;;;;;5005104;28;37534;-78
2021/05/17 06:25:11;;;;;;;9.20;4.90;;;;;;;;;;4982820;28;40634;-78
2021/05/17 06:27:38;;;;;;;10.93;5.25;;;;;;;;;;4993049;28;39211;-78
2021/05/17 06:30:06;;;;;;;9.98;4.85;;;;;;;;;;5005209;28;38517;-77
2021/05/17 06:32:36;;;;;;;6.20;5.03;;;;;;;;;;5007383;28;48862;-77
2021/05/17 06:35:04;;;;;;;10.18;5.28;;;;;;;;;;5004989;28;39258;-77
2021/05/17 06:37:34;;;;;;;9.63;4.95;;;;;;;;;;4983858;28;47207;-78
2021/05/17 06:40:01;;;;;;;10.00;5.03;;;;;;;;;;4963144;28;38438;-78
2021/05/17 06:42:28;;;;;;;10.57;5.03;;;;;;;;;;4973723;28;35821;-77
2021/05/17 06:44:55;;;;;;;11.13;5.07;;;;;;;;;;4969962;28;39653;-77
2021/05/17 06:47:22;;;;;;;7.28;5.10;;;;;;;;;;4969733;28;39325;-78
2021/05/17 06:49:49;;;;;;;12.98;6.03;;;;;;;;;;4970096;28;39139;-78
2021/05/17 06:52:17;;;;;;;12.48;6.20;;;;;;;;;;4968265;28;38043;-78
2021/05/17 06:54:44;;;;;;;8.75;5.18;;;;;;;;;;4967544;28;39514;-77
2021/05/17 06:57:24;;;;;;;10.40;5.50;;;;;;;;;;4974645;28;39568;-77
2021/05/17 06:59:55;;;;;;;13.60;6.50;;;;;;;;;;4974128;28;38411;-77
2021/05/17 07:02:22;;;;;;;11.53;5.40;;;;;;;;;;4960502;28;37915;-77
2021/05/17 07:04:50;;;;;;;14.68;5.40;;;;;;;;;;4990929;28;37029;-77
2021/05/17 07:07:22;;;;;;;11.05;5.47;;;;;;;;;;4992621;28;39248;-77
2021/05/17 07:12:34;;;;;;;10.32;5.15;;;;;;;;;;4976656;28;49934;-77
2021/05/17 07:15:02;;;;;;;7.45;5.18;;;;;;;;;;4971856;28;39354;-78
2021/05/17 07:17:28;;;;;;;8.18;4.80;;;;;;;;;;4963360;28;47175;-78
2021/05/17 07:19:55;;;;;;;9.77;4.93;;;;;;;;;;4975098;28;39080;-77
2021/05/17 07:25:07;;;;;;;6.25;4.38;;;;;;;;;;4980943;28;39573;-77
2021/05/17 07:27:33;;;;;;;7.28;4.43;;;;;;;;;;4981982;28;39917;-78
2021/05/17 07:30:00;;;;;;;7.47;5.18;;;;;;;;;;4963634;28;39206;-77
2021/05/17 07:32:26;;;;;;;10.63;5.13;;;;;;;;;;4961149;28;37472;-77
2021/05/17 07:34:52;;;;;;;10.30;5.57;;;;;;;;;;4957981;28;39292;-77
2021/05/17 07:37:20;;;;;;;16.23;6.40;;;;;;;;;;4962951;28;36706;-77
2021/05/17 07:39:46;;;;;;;11.80;5.75;;;;;;;;;;4956226;28;39984;-77
2021/05/17 07:42:13;;;;;;;8.90;5.82;;;;;;;;;;4960273;28;37095;-76
2021/05/17 07:44:39;;;;;;;7.10;4.63;;;;;;;;;;4979169;28;38946;-76
2021/05/17 07:47:06;;;;;;;9.70;5.20;;;;;;;;;;4958064;28;39140;-77
2021/05/17 07:49:41;;;;;;;10.45;5.13;;;;;;;;;;4981273;28;38603;-77
2021/05/17 07:52:09;;;;;;;8.38;5.22;;;;;;;;;;4962962;28;35913;-75
2021/05/17 07:54:37;;;;;;;9.32;5.32;;;;;;;;;;4958405;28;37930;-77
2021/05/17 07:57:05;;;;;;;9.93;4.97;;;;;;;;;;4964807;28;38071;-76
2021/05/17 07:59:32;;;;;;;9.52;5.18;;;;;;;;;;4978510;28;35557;-75
2021/05/17 08:02:00;;;;;;;9.90;5.05;;;;;;;;;;4973476;28;35695;-75
2021/05/17 08:04:27;;;;;;;7.70;4.43;;;;;;;;;;4982198;28;41817;-77
2021/05/17 08:06:53;;;;;;;4.75;3.67;;;;;;;;;;4985568;28;39022;-75
2021/05/17 08:09:20;;;;;;;7.97;4.10;;;;;;;;;;4969417;28;39535;-77
2021/05/17 08:11:46;;;;;;;7.15;4.55;;;;;;;;;;4963685;28;37727;-75
2021/05/17 08:14:15;;;;;;;8.18;3.97;;;;;;;;;;4964254;28;39178;-76
2021/05/17 08:16:42;;;;;;;8.45;4.15;;;;;;;;;;4960203;28;38474;-76
2021/05/17 08:19:08;;;;;;;7.20;3.00;;;;;;;;;;4955435;28;38532;-77
2021/05/17 08:21:35;;;;;;;7.88;3.05;;;;;;;;;;4981048;28;37181;-76
2021/05/17 08:24:01;;;;;;;5.40;3.35;;;;;;;;;;4957786;28;39165;-76
2021/05/17 08:26:27;;;;;;;9.48;5.15;;;;;;;;;;4978533;28;47185;-76
2021/05/17 08:28:54;;;;;;;6.60;4.22;;;;;;;;;;4956353;28;37424;-76
2021/05/17 08:31:24;;;;;;;7.88;5.20;;;;;;;;;;4958823;28;36123;-75
2021/05/17 08:33:50;;;;;;;8.07;4.70;;;;;;;;;;4966963;28;38026;-76
2021/05/17 08:36:18;;;;;;;8.50;5.22;;;;;;;;;;4985815;28;38881;-76
2021/05/17 08:38:44;;;;;;;7.07;5.70;;;;;;;;;;4966739;28;38678;-76
2021/05/17 08:41:12;;;;;;;8.63;4.88;;;;;;;;;;4964237;28;37209;-76
2021/05/17 08:43:40;;;;;;;7.78;5.07;;;;;;;;;;4954875;28;37912;-76
2021/05/17 08:46:11;;;;;;;7.55;5.43;;;;;;;;;;4952865;28;39686;-76
2021/05/17 08:48:46;;;;;;;4.68;3.92;;;;;;;;;;4952500;28;37807;-76
2021/05/17 08:51:20;;;;;;;5.65;4.18;;;;;;;;;;4982379;28;37995;-77
2021/05/17 08:53:48;;;;;;;6.50;3.63;;;;;;;;;;4959402;28;39718;-76
2021/05/17 08:56:15;;;;;;;5.43;3.50;;;;;;;;;;4957263;28;37684;-76
2021/05/17 08:58:42;;;;;;;5.47;4.50;;;;;;;;;;4948319;28;37232;-77
2021/05/17 09:01:08;;;;;;;4.53;3.22;;;;;;;;;;4958866;28;35635;-76
2021/05/17 09:03:35;;;;;;;5.32;3.92;;;;;;;;;;4962717;28;37229;-76
2021/05/17 09:06:08;;;;;;;4.47;2.67;;;;;;;;;;4969725;28;37727;-76
2021/05/17 09:08:44;;;;;;;2.70;2.50;;;;;;;;;;4980615;28;47225;-77
2021/05/17 09:11:11;;;;;;;3.60;1.85;;;;;;;;;;4964372;28;36891;-75
2021/05/17 09:13:38;;;;;;;2.83;1.70;;;;;;;;;;4965265;28;37891;-76
2021/05/17 09:16:04;;;;;;;1.77;1.65;;;;;;;;;;4976070;28;39726;-77
2021/05/17 09:18:31;;;;;;;2.88;1.83;;;;;;;;;;4982537;28;39317;-76
2021/05/17 09:20:59;;;;;;;4.15;2.22;;;;;;;;;;4961377;28;38650;-76
2021/05/17 09:23:32;;;;;;;3.20;2.00;;;;;;;;;;4963428;28;39898;-75
2021/05/17 09:26:11;;;;;;;2.35;1.98;;;;;;;;;;4988321;28;38956;-77
2021/05/17 09:28:46;;;;;;;4.15;2.80;;;;;;;;;;4969783;28;47126;-76
2021/05/17 09:31:22;;;;;;;2.55;2.08;;;;;;;;;;4981640;28;35490;-76
2021/05/17 09:33:56;;;;;;;3.70;2.67;;;;;;;;;;4973315;28;37734;-77
2021/05/17 09:36:28;;;;;;;3.67;2.50;;;;;;;;;;4970187;28;38146;-76
2021/05/17 09:39:04;;;;;;;5.20;3.13;;;;;;;;;;5008458;28;39128;-77
2021/05/17 09:41:41;;;;;;;4.53;3.00;;;;;;;;;;4990075;28;47361;-77
2021/05/17 09:44:08;;;;;;;5.78;2.70;;;;;;;;;;5012130;28;39177;-77
2021/05/17 09:46:55;;;;;;;4.57;2.55;;;;;;;;;;5008467;28;38708;-77
2021/05/17 09:49:33;;;;;;;3.85;2.15;;;;;;;;;;4987747;28;39818;-77
2021/05/17 09:52:12;;;;;;;3.17;2.03;;;;;;;;;;4988444;28;37012;-78
2021/05/17 09:54:51;;;;;;;6.95;2.05;;;;;;;;;;5008513;28;49042;-76
2021/05/17 09:57:39;;;;;;;6.80;2.10;;;;;;;;;;4995692;28;38235;-76
2021/05/17 10:00:12;;;;;;;7.38;1.98;;;;;;;;;;4988523;28;37425;-78
2021/05/17 10:02:45;;;;;;;9.93;3.28;;;;;;;;;;4984220;28;47490;-77
2021/05/17 10:05:14;;;;;;;10.40;2.70;;;;;;;;;;4993125;28;38956;-78
2021/05/17 10:07:41;;;;;;;15.75;3.42;;;;;;;;;;5008854;28;39392;-78
2021/05/17 10:10:08;;;;;;;19.73;4.13;;;;;;;;;;5009608;28;38104;-77
2021/05/17 10:12:35;;;;;;;13.43;4.00;;;;;;;;;;4998445;28;36855;-77
2021/05/17 10:15:01;;;;;;;12.30;3.75;;;;;;;;;;5001918;28;39917;-77
2021/05/17 10:17:28;;;;;;;12.07;3.90;;;;;;;;;;5001607;28;48804;-77
2021/05/17 10:19:54;;;;;;;11.07;4.00;;;;;;;;;;5004195;28;38930;-77
2021/05/17 10:22:21;;;;;;;9.27;4.18;;;;;;;;;;4985074;28;36983;-77
2021/05/17 10:24:47;;;;;;;14.80;4.85;;;;;;;;;;4991566;28;38504;-78
2021/05/17 10:27:14;;;;;;;16.50;5.22;;;;;;;;;;4995123;28;39692;-78
2021/05/17 10:29:40;;;;;;;14.30;4.03;;;;;;;;;;4993310;28;39178;-78
2021/05/17 10:32:08;;;;;;;12.30;3.38;;;;;;;;;;4984159;28;36994;-77
2021/05/17 10:34:48;;;;;;;11.27;2.92;;;;;;;;;;5005889;28;39338;-78
2021/05/17 10:37:18;;;;;;;8.75;2.78;;;;;;;;;;5006168;28;38595;-76
2021/05/17 10:39:47;;;;;;;5.47;1.88;;;;;;;;;;4980941;28;39136;-77
2021/05/17 10:48:16;;;;;;;6.88;2.00;;;;;;;;;;4951599;28;48825;-76
2021/05/17 10:50:44;;;;;;;8.02;2.45;;;;;;;;;;4972547;28;47010;-76
2021/05/17 10:53:29;;;;;;;5.65;1.80;;;;;;;;;;4983679;28;37488;-75
2021/05/17 10:55:57;;;;;;;5.20;1.90;;;;;;;;;;4983337;28;39914;-76
2021/05/17 11:00:22;;;;;;;4.78;1.50;;;;;;;;;;4986477;28;39376;-76
2021/05/17 11:01:29;;;;;;;4.43;1.65;;;;;;;;;;5001719;28;48153;-76
2021/05/17 11:04:14;;;;;;;4.82;1.08;;;;;;;;;;4987961;28;37202;-76
2021/05/17 11:06:41;;;;;;;3.05;1.25;;;;;;;;;;4987039;28;46892;-76
2021/05/17 11:09:07;;;;;;;2.92;0.70;;;;;;;;;;5003794;28;39398;-76
2021/05/17 11:11:34;;;;;;;2.67;1.15;;;;;;;;;;5002844;28;38176;-77
2021/05/17 11:14:21;;;;;;;5.07;1.00;;;;;;;;;;4985610;28;36177;-77
2021/05/17 11:16:59;;;;;;;3.15;1.65;;;;;;;;;;4992102;28;39261;-77
2021/05/17 11:19:26;;;;;;;5.30;1.90;;;;;;;;;;4978141;28;37670;-76
2021/05/17 11:21:58;;;;;;;11.45;2.60;;;;;;;;;;4976408;28;39030;-77
2021/05/17 11:24:25;;;;;;;;;;;;;;;;;;4983988;28;35623;-76
2021/05/17 11:26:54;;;;;;;5.32;2.50;;;;;;;;;;4980662;28;39502;-75
2021/05/17 11:29:31;;;;;;;4.47;2.33;;;;;;;;;;4974811;28;38755;-76
2021/05/17 11:32:11;;;;;;;5.43;2.50;;;;;;;;;;4974714;28;39306;-76
2021/05/17 11:34:57;;;;;;;6.38;2.35;;;;;;;;;;4985890;28;47316;-77
2021/05/17 11:37:24;;;;;;;4.25;2.38;;;;;;;;;;4986317;28;40686;-75
2021/05/17 11:39:50;;;;;;;6.95;2.30;;;;;;;;;;4986323;28;40947;-75
2021/05/17 11:42:18;;;;;;;8.07;2.60;;;;;;;;;;4993832;28;38427;-76
2021/05/17 11:47:13;;;;;;;12.05;3.15;;;;;;;;;;5005366;28;39153;-76
2021/05/17 11:49:42;;;;;;;8.98;2.63;;;;;;;;;;4987581;28;39989;-76
2021/05/17 11:52:09;;;;;;;6.22;2.65;;;;;;;;;;4981604;28;39037;-76
2021/05/17 11:54:36;;;;;;;5.05;2.28;;;;;;;;;;4976586;28;35913;-75
2021/05/17 11:57:04;;;;;;;5.55;2.08;;;;;;;;;;4980495;28;39670;-76
2021/05/17 11:59:31;;;;;;;5.13;2.30;;;;;;;;;;4985066;28;39504;-77
2021/05/17 12:01:59;;;;;;;4.88;1.83;;;;;;;;;;4978817;28;40154;-77
2021/05/17 12:04:35;;;;;;;5.55;2.25;;;;;;;;;;4987208;28;37541;-76
2021/05/17 12:07:03;;;;;;;5.50;2.40;;;;;;;;;;5002788;28;39732;-75
2021/05/17 12:09:53;;;;;;;6.55;2.67;;;;;;;;;;4982328;28;47501;-76
2021/05/17 12:12:20;;;;;;;8.90;3.78;;;;;;;;;;4965747;28;40088;-75
2021/05/17 12:14:46;;;;;;;10.75;4.25;;;;;;;;;;4984867;28;37418;-76
2021/05/17 12:17:23;;;;;;;13.23;5.60;;;;;;;;;;4995728;28;39343;-75
2021/05/17 12:19:51;;;;;;;12.50;4.78;;;;;;;;;;4984602;28;40637;-76
2021/05/17 12:22:18;;;;;;;9.45;4.43;;;;;;;;;;4989367;28;40307;-76
2021/05/17 12:24:45;;;;;;;11.13;5.25;;;;;;;;;;4989549;28;37132;-76
2021/05/17 12:27:12;;;;;;;10.50;4.53;;;;;;;;;;4980919;28;40605;-77
2021/05/17 12:29:49;;;;;;;11.30;4.85;;;;;;;;;;4979960;28;39775;-77
2021/05/17 12:32:15;;;;;;;9.82;4.95;;;;;;;;;;4980628;28;39436;-76
2021/05/17 12:34:54;;;;;;;11.25;5.03;;;;;;;;;;5004573;28;36819;-77
2021/05/17 12:37:21;;;;;;;17.35;6.93;;;;;;;;;;4971579;28;39745;-76
2021/05/17 12:40:07;;;;;;;13.23;5.97;;;;;;;;;;4985106;28;39309;-77
2021/05/17 12:42:34;;;;;;;10.90;5.65;;;;;;;;;;4983888;28;47205;-77
2021/05/17 12:45:13;;;;;;;10.18;5.25;;;;;;;;;;4988027;28;37652;-78
2021/05/17 12:47:40;;;;;;;10.77;5.10;;;;;;;;;;4988781;28;46875;-78
2021/05/17 12:50:16;;;;;;;14.25;5.90;;;;;;;;;;4993344;28;39463;-77
2021/05/17 12:52:43;;;;;;;12.43;6.15;;;;;;;;;;5011514;28;38315;-78
2021/05/17 12:55:18;;;;;;;12.63;4.15;;;;;;;;;;4992285;28;38527;-78
2021/05/17 12:57:49;;;;;;;7.38;4.25;;;;;;;;;;4991523;28;39766;-78
2021/05/17 13:00:18;;;;;;;12.32;4.85;;;;;;;;;;4987624;28;40623;-78
2021/05/17 13:03:01;;;;;;;12.88;5.13;;;;;;;;;;5004457;28;38743;-78
2021/05/17 13:05:27;;;;;;;16.10;5.18;;;;;;;;;;5009966;28;48278;-78
2021/05/17 13:08:01;;;;;;;10.98;5.32;;;;;;;;;;4992492;28;39590;-77
2021/05/17 13:10:28;;;;;;;12.82;4.95;;;;;;;;;;4990631;28;47249;-77
2021/05/17 13:12:55;;;;;;;10.68;4.25;;;;;;;;;;5014216;28;38259;-77
2021/05/17 13:15:22;;;;;;;13.07;4.70;;;;;;;;;;5004174;28;36784;-77
2021/05/17 13:18:08;;;;;;;11.18;5.75;;;;;;;;;;5008610;28;39399;-77
2021/05/17 13:20:34;;;;;;;12.40;4.35;;;;;;;;;;4991634;28;47177;-77
2021/05/17 13:24:13;;;;;;;9.98;4.45;;;;;;;;;;4990115;28;37661;-76
2021/05/17 13:31:49;;;;;;;9.18;2.60;;;;;;;;;;5009484;28;49041;-76
2021/05/17 13:34:16;;;;;;;11.80;5.13;;;;;;;;;;5008047;28;39536;-77
2021/05/17 13:36:42;;;;;;;9.73;3.70;;;;;;;;;;5011465;28;36965;-77
2021/05/17 13:39:09;;;;;;;8.90;3.65;;;;;;;;;;5011390;28;38418;-77
2021/05/17 13:41:35;;;;;;;7.20;3.00;;;;;;;;;;4988756;28;39792;-77
2021/05/17 13:44:02;;;;;;;10.88;3.63;;;;;;;;;;4990672;28;38208;-77
2021/05/17 13:46:30;;;;;;;9.55;3.25;;;;;;;;;;4990485;28;48223;-77
2021/05/17 13:48:57;;;;;;;10.23;4.43;;;;;;;;;;4991421;28;39358;-77
2021/05/17 13:51:25;;;;;;;7.78;3.65;;;;;;;;;;4989097;28;40310;-77
2021/05/17 13:53:52;;;;;;;8.88;3.78;;;;;;;;;;5007414;28;40807;-77
2021/05/17 13:56:20;;;;;;;8.85;3.53;;;;;;;;;;4986408;28;38535;-77
2021/05/17 13:58:46;;;;;;;6.47;3.00;;;;;;;;;;4983688;28;39067;-77
2021/05/17 14:01:13;;;;;;;9.05;3.35;;;;;;;;;;5003117;28;39190;-76
2021/05/17 14:03:39;;;;;;;8.27;3.20;;;;;;;;;;4999523;28;38382;-76
2021/05/17 14:06:06;;;;;;;10.02;4.15;;;;;;;;;;4986057;28;38365;-76
2021/05/17 14:08:32;;;;;;;8.45;3.50;;;;;;;;;;4984720;28;40578;-75
2021/05/17 14:10:59;;;;;;;9.68;4.93;;;;;;;;;;4986165;28;39110;-76
2021/05/17 14:13:25;;;;;;;7.15;3.95;;;;;;;;;;5008542;28;38810;-76
2021/05/17 14:15:51;;;;;;;10.20;3.10;;;;;;;;;;5005301;28;37101;-76
2021/05/17 14:18:18;;;;;;;10.38;3.72;;;;;;;;;;5003221;28;40048;-75
2021/05/17 14:20:44;;;;;;;10.45;3.47;;;;;;;;;;5008620;28;39914;-76
2021/05/17 14:23:11;;;;;;;10.85;3.95;;;;;;;;;;5012416;28;39062;-75
2021/05/17 14:25:38;;;;;;;13.20;4.85;;;;;;;;;;5001779;28;37323;-75
2021/05/17 14:28:05;;;;;;;12.60;5.80;;;;;;;;;;4999865;28;41101;-75
2021/05/17 14:30:32;;;;;;;14.90;4.10;;;;;;;;;;4987773;28;39773;-75
2021/05/17 14:32:58;;;;;;;15.23;4.10;;;;;;;;;;5004026;28;38370;-75
2021/05/17 14:35:25;;;;;;;11.73;3.92;;;;;;;;;;4979106;28;37172;-75
2021/05/17 14:37:51;;;;;;;16.92;5.28;;;;;;;;;;4987880;28;40892;-74
2021/05/17 14:40:18;;;;;;;12.45;4.32;;;;;;;;;;4999805;28;40137;-75
2021/05/17 14:42:44;;;;;;;11.65;4.55;;;;;;;;;;4981829;28;39191;-75
2021/05/17 14:45:11;;;;;;;14.18;4.28;;;;;;;;;;4985402;28;37643;-75
2021/05/17 14:47:38;;;;;;;14.93;5.05;;;;;;;;;;4981375;28;40410;-78
2021/05/17 14:50:05;;;;;;;15.57;5.93;;;;;;;;;;4977245;28;37838;-78
2021/05/17 14:52:32;;;;;;;17.20;5.05;;;;;;;;;;5005639;28;48451;-77
2021/05/17 14:54:58;;;;;;;13.65;5.03;;;;;;;;;;4985663;28;37626;-78
2021/05/17 14:57:25;;;;;;;15.07;5.90;;;;;;;;;;4988327;28;37841;-78
2021/05/17 14:59:55;;;;;;;12.52;4.57;;;;;;;;;;4988600;28;39809;-78
2021/05/17 15:02:22;;;;;;;12.25;4.85;;;;;;;;;;4983295;28;40097;-78
2021/05/17 15:04:48;;;;;;;16.70;5.63;;;;;;;;;;4985885;28;39227;-76
2021/05/17 15:07:15;;;;;;;17.70;5.40;;;;;;;;;;4988738;28;41142;-77
2021/05/17 15:09:41;;;;;;;11.70;3.88;;;;;;;;;;4998200;28;40260;-77